Time;durP1;ratioP1;P1;durP2;ratioP2;P2;SDS_P1;SDS_P2;PMS_P1;PMS_P2;Temp;Humidity;BMP_temperature;BMP_pressure;BME280_temperature;BME280_humidity;BME280_pressure;Samples;Min_cycle;Max_cycle;Signal;HPM_P1;HPM_P2
2021/07/26 00:01:51;;;;;;;18.32;13.95;;;;;;;18.10;92.75;97738.72;1602499;89;20878;-76
2021/07/26 00:04:17;;;;;;;21.60;14.70;;;;;;;18.11;93.38;97751.30;1631234;86;21424;-74
2021/07/26 00:06:45;;;;;;;17.30;12.78;;;;;;;18.11;92.65;97774.59;1631515;86;21127;-74
2021/07/26 00:09:11;;;;;;;18.87;13.72;;;;;;;18.14;92.34;97768.46;1631346;87;21448;-74
2021/07/26 00:11:36;;;;;;;15.58;12.90;;;;;;;18.15;92.50;97765.38;1601407;87;20913;-74
2021/07/26 00:14:02;;;;;;;13.62;10.60;;;;;;;18.17;92.13;97771.33;1638114;87;20876;-77
2021/07/26 00:16:28;;;;;;;14.18;9.20;;;;;;;18.21;92.14;97759.94;1631520;87;20991;-74
2021/07/26 00:18:54;;;;;;;10.75;6.47;;;;;;;18.25;92.19;97751.25;1638248;87;22173;-76
2021/07/26 00:21:20;;;;;;;7.37;6.08;;;;;;;18.33;92.45;97756.44;1631515;88;20904;-74
2021/07/26 00:23:46;;;;;;;7.60;6.80;;;;;;;18.32;92.61;97759.75;1638120;86;20959;-77
2021/07/26 00:26:13;;;;;;;7.97;6.33;;;;;;;18.28;92.45;97764.28;1638072;87;20908;-74
2021/07/26 00:28:39;;;;;;;9.10;7.50;;;;;;;18.26;92.55;97767.94;1638014;86;21428;-77
2021/07/26 00:31:05;;;;;;;9.50;6.95;;;;;;;18.26;92.26;97777.54;1631612;86;21234;-74
2021/07/26 00:34:14;;;;;;;8.20;7.03;;;;;;;18.27;92.19;97775.02;1631142;86;20904;-74
2021/07/26 00:36:44;;;;;;;13.55;7.08;;;;;;;18.29;92.79;97756.89;1631598;86;20968;-73
2021/07/26 00:39:13;;;;;;;10.10;6.40;;;;;;;18.31;93.28;97735.41;1631191;88;20953;-73
2021/07/26 00:41:39;;;;;;;9.98;6.65;;;;;;;18.32;93.35;97721.92;1638337;86;21047;-76
2021/07/26 00:44:05;;;;;;;11.78;6.87;;;;;;;18.30;96.07;97693.47;1638027;87;21355;-73
2021/07/26 00:46:31;;;;;;;9.38;6.10;;;;;;;18.30;96.88;97677.58;1638150;86;21091;-76
2021/07/26 00:48:57;;;;;;;7.95;6.78;;;;;;;18.27;94.19;97678.23;1631419;88;21045;-76
2021/07/26 00:51:23;;;;;;;8.10;6.47;;;;;;;18.22;94.38;97701.20;1638292;87;21115;-76
2021/07/26 00:53:49;;;;;;;9.10;7.37;;;;;;;18.16;94.82;97693.52;1637528;86;21658;-77
2021/07/26 00:56:15;;;;;;;11.45;6.90;;;;;;;18.07;94.71;97691.42;1631596;88;21188;-76
2021/07/26 00:58:42;;;;;;;9.60;7.15;;;;;;;18.01;96.17;97683.97;1631130;86;20900;-76
2021/07/26 01:01:09;;;;;;;11.65;8.33;;;;;;;17.99;94.94;97672.55;1638160;87;21054;-73
2021/07/26 01:03:36;;;;;;;11.78;9.15;;;;;;;17.98;95.16;97656.67;1637990;86;20992;-76
2021/07/26 01:06:03;;;;;;;13.10;8.43;;;;;;;17.91;97.03;97628.20;1638195;87;21475;-73
2021/07/26 01:08:28;;;;;;;9.25;7.75;;;;;;;17.93;95.73;97623.17;1638007;86;21307;-76
2021/07/26 01:10:55;;;;;;;9.15;8.15;;;;;;;17.93;95.46;97636.88;1631714;86;20900;-77
2021/07/26 01:13:24;;;;;;;9.13;7.35;;;;;;;17.94;95.26;97646.70;1637952;86;21000;-72
2021/07/26 01:15:49;;;;;;;8.63;7.08;;;;;;;17.95;95.18;97636.80;1631175;88;21424;-72
2021/07/26 01:18:30;;;;;;;9.05;7.08;;;;;;;17.96;95.17;97630.17;1638027;86;20873;-76
2021/07/26 01:21:03;;;;;;;10.28;6.78;;;;;;;17.94;94.92;97631.63;1637826;87;21201;-73
2021/07/26 01:23:32;;;;;;;9.58;6.65;;;;;;;17.93;95.72;97613.58;1631145;86;20933;-77
2021/07/26 01:25:58;;;;;;;;;;;;;;;17.94;95.80;97602.27;1640406;86;21036;-73
2021/07/26 01:28:27;;;;;;;10.10;6.83;;;;;;;17.95;94.84;97586.66;1637724;86;20162;-77
2021/07/26 01:30:53;;;;;;;9.68;6.78;;;;;;;17.92;94.70;97576.35;1637964;86;21063;-76
2021/07/26 01:33:19;;;;;;;14.05;7.28;;;;;;;17.95;94.65;97574.33;1637805;86;21348;-74
2021/07/26 01:35:45;;;;;;;7.50;6.22;;;;;;;17.99;94.78;97585.63;1638156;87;20942;-76
2021/07/26 01:38:11;;;;;;;9.78;6.90;;;;;;;18.01;94.51;97593.51;1631808;86;20991;-73
2021/07/26 01:40:40;;;;;;;11.40;7.58;;;;;;;18.04;94.80;97588.73;1606551;89;21023;-77
2021/07/26 01:43:10;;;;;;;11.20;8.20;;;;;;;18.03;95.15;97595.33;1606312;88;21051;-77
2021/07/26 01:45:38;;;;;;;10.30;7.45;;;;;;;17.97;95.16;97602.98;1606458;89;21172;-73
2021/07/26 01:48:13;;;;;;;10.00;8.85;;;;;;;18.00;95.45;97597.39;1601741;89;21090;-76
2021/07/26 01:51:00;;;;;;;10.78;8.83;;;;;;;17.96;94.97;97593.17;1606458;89;21015;-77
2021/07/26 01:53:26;;;;;;;11.65;7.85;;;;;;;18.00;95.46;97591.34;1606084;88;21547;-73
2021/07/26 01:55:52;;;;;;;6.75;5.83;;;;;;;18.00;94.78;97576.27;1606494;89;21042;-76
2021/07/26 01:58:18;;;;;;;6.78;5.90;;;;;;;18.02;94.93;97562.21;1606258;87;21343;-72
2021/07/26 02:00:44;;;;;;;7.80;6.37;;;;;;;18.09;94.71;97557.55;1571840;91;21517;-76
2021/07/26 02:03:10;;;;;;;8.55;5.87;;;;;;;18.14;94.29;97532.67;1571427;90;20989;-72
2021/07/26 02:05:36;;;;;;;9.55;7.53;;;;;;;18.19;93.98;97525.58;1607501;87;20939;-73
2021/07/26 02:08:02;;;;;;;7.92;5.65;;;;;;;18.21;93.67;97515.09;1606319;88;20888;-72
2021/07/26 02:10:28;;;;;;;8.95;6.22;;;;;;;18.20;93.50;97520.31;1606215;89;21181;-72
2021/07/26 02:12:55;;;;;;;9.38;5.50;;;;;;;18.19;93.31;97525.58;1606134;88;21022;-72
2021/07/26 02:15:21;;;;;;;8.15;6.30;;;;;;;18.19;93.45;97522.83;1603517;88;21361;-76
2021/07/26 02:17:47;;;;;;;7.12;6.12;;;;;;;18.17;93.12;97524.55;1601199;88;21026;-73
2021/07/26 02:20:16;;;;;;;6.12;5.17;;;;;;;18.17;93.04;97510.84;1606317;89;20916;-73
2021/07/26 02:22:44;;;;;;;8.33;4.90;;;;;;;18.17;92.91;97516.33;1606288;87;21869;-72
2021/07/26 02:25:11;;;;;;;6.67;5.03;;;;;;;18.18;92.89;97525.34;1606255;89;20963;-75
2021/07/26 02:27:37;;;;;;;8.00;4.87;;;;;;;18.18;92.78;97520.66;1606348;88;21008;-75
2021/07/26 02:30:04;;;;;;;11.65;5.80;;;;;;;18.19;92.95;97527.74;1606402;89;20939;-72
2021/07/26 02:32:30;;;;;;;18.10;10.93;;;;;;;18.14;92.75;97529.92;1606413;88;20987;-73
2021/07/26 02:34:56;;;;;;;15.08;11.08;;;;;;;18.12;93.06;97530.84;1606351;89;20924;-76
2021/07/26 02:37:22;;;;;;;13.90;10.13;;;;;;;18.05;92.85;97534.14;1606328;87;21486;-76
2021/07/26 02:39:48;;;;;;;7.87;6.67;;;;;;;18.02;93.79;97536.97;1611064;89;20887;-72
2021/07/26 02:42:14;;;;;;;9.38;6.67;;;;;;;18.00;93.33;97526.92;1613007;87;21018;-76
2021/07/26 02:44:40;;;;;;;10.80;6.20;;;;;;;17.95;93.00;97523.62;1612892;89;20948;-72
2021/07/26 02:47:06;;;;;;;8.33;5.75;;;;;;;17.91;94.22;97529.53;1613009;87;21349;-74
2021/07/26 02:49:32;;;;;;;7.58;5.95;;;;;;;17.91;93.24;97537.75;1612942;89;20961;-72
2021/07/26 02:51:58;;;;;;;6.55;4.97;;;;;;;17.90;93.66;97541.64;1593318;89;20967;-73
2021/07/26 02:54:24;;;;;;;8.25;5.85;;;;;;;17.87;94.05;97542.33;1612908;89;20879;-73
2021/07/26 02:56:50;;;;;;;9.23;6.47;;;;;;;17.81;94.01;97533.51;1612983;87;21580;-73
2021/07/26 02:59:16;;;;;;;8.90;6.42;;;;;;;17.78;93.88;97530.09;1612939;89;21188;-73
2021/07/26 03:01:42;;;;;;;5.65;5.05;;;;;;;17.74;94.07;97525.03;1612985;87;20879;-75
2021/07/26 03:04:07;;;;;;;8.43;5.47;;;;;;;17.74;94.08;97523.66;1612961;89;21641;-72
2021/07/26 03:06:33;;;;;;;5.53;4.37;;;;;;;17.69;94.82;97525.23;1612954;87;20951;-76
2021/07/26 03:08:59;;;;;;;6.75;4.33;;;;;;;17.63;94.16;97522.47;1613048;87;20939;-76
2021/07/26 03:11:25;;;;;;;6.40;4.87;;;;;;;17.60;93.64;97529.40;1613074;89;21329;-76
2021/07/26 03:13:51;;;;;;;6.30;4.83;;;;;;;17.58;93.75;97529.52;1612782;87;21581;-72
2021/07/26 03:16:17;;;;;;;5.62;4.50;;;;;;;17.58;94.29;97525.41;1613097;89;20903;-76
2021/07/26 03:18:43;;;;;;;6.97;4.33;;;;;;;17.60;94.02;97521.75;1612811;87;20922;-75
2021/07/26 03:21:15;;;;;;;5.35;3.45;;;;;;;17.59;93.70;97527.00;1613029;89;20883;-72
2021/07/26 03:23:41;;;;;;;6.22;4.42;;;;;;;17.60;94.10;97533.51;1612826;87;21055;-73
2021/07/26 03:26:07;;;;;;;8.38;6.15;;;;;;;17.60;94.35;97529.97;1612789;89;21010;-76
2021/07/26 03:28:34;;;;;;;11.25;6.15;;;;;;;17.60;94.31;97526.66;1612860;87;21038;-73
2021/07/26 03:31:00;;;;;;;6.25;4.50;;;;;;;17.56;93.86;97530.42;1612697;89;20999;-73
2021/07/26 03:33:27;;;;;;;6.20;3.77;;;;;;;17.57;94.37;97529.28;1612805;87;21516;-76
2021/07/26 03:35:53;;;;;;;5.70;4.28;;;;;;;17.57;94.33;97534.77;1612763;89;21155;-77
2021/07/26 03:38:21;;;;;;;5.42;3.17;;;;;;;17.54;93.90;97538.98;1612776;87;20943;-73
2021/07/26 03:40:47;;;;;;;5.28;3.83;;;;;;;17.48;93.91;97547.17;1612663;87;21495;-73
2021/07/26 03:43:13;;;;;;;7.87;4.17;;;;;;;17.47;93.87;97551.05;1593149;89;20987;-73
2021/07/26 03:45:39;;;;;;;5.35;4.05;;;;;;;17.47;95.03;97548.31;1612913;89;20848;-73
2021/07/26 03:48:06;;;;;;;4.95;3.95;;;;;;;17.51;95.30;97547.05;1612835;87;21169;-76
2021/07/26 03:50:32;;;;;;;5.25;4.10;;;;;;;17.55;94.33;97542.52;1612834;89;21337;-76
2021/07/26 03:52:58;;;;;;;4.72;4.22;;;;;;;17.56;94.07;97546.29;1612906;87;21007;-73
2021/07/26 03:55:31;;;;;;;5.00;3.77;;;;;;;17.54;94.25;97547.20;1612873;89;21071;-76
2021/07/26 03:57:58;;;;;;;9.55;4.53;;;;;;;17.54;94.28;97549.94;1612783;87;21010;-72
2021/07/26 04:00:25;;;;;;;5.20;4.22;;;;;;;17.47;94.07;97551.05;1612857;89;22006;-72
2021/07/26 04:03:15;;;;;;;8.35;3.77;;;;;;;17.40;94.53;97559.00;1612727;87;20991;-73
2021/07/26 04:05:39;;;;;;;5.50;3.60;;;;;;;17.33;95.15;97556.79;1612036;89;20999;-76
2021/07/26 04:08:20;;;;;;;5.83;3.87;;;;;;;17.32;94.36;97558.50;1613013;87;21003;-75
2021/07/26 04:10:44;;;;;;;8.23;3.98;;;;;;;17.33;94.54;97568.31;1611968;89;21413;-72
2021/07/26 04:13:08;;;;;;;8.95;3.98;;;;;;;17.34;95.00;97569.34;1612638;87;21176;-72
2021/07/26 04:15:35;;;;;;;6.60;3.42;;;;;;;17.40;94.81;97572.12;1612870;89;20895;-73
2021/07/26 04:18:01;;;;;;;3.33;3.02;;;;;;;17.44;95.29;97594.18;1612902;87;20991;-76
2021/07/26 04:20:27;;;;;;;5.60;3.60;;;;;;;17.40;95.98;97594.03;1612892;89;20860;-76
2021/07/26 04:22:53;;;;;;;6.85;4.12;;;;;;;17.33;96.35;97607.45;1612839;87;20844;-72
2021/07/26 04:25:19;;;;;;;9.20;5.90;;;;;;;17.37;95.84;97613.88;1612818;87;21058;-73
2021/07/26 04:27:45;;;;;;;10.43;4.55;;;;;;;17.48;94.93;97611.53;1612749;87;21620;-73
2021/07/26 04:30:13;;;;;;;4.62;3.75;;;;;;;17.60;94.54;97609.41;1612833;89;20899;-72
2021/07/26 04:32:47;;;;;;;6.33;5.12;;;;;;;17.71;94.05;97603.81;1612912;87;21401;-72
2021/07/26 04:35:15;;;;;;;6.72;5.12;;;;;;;17.79;93.84;97618.00;1612825;89;21368;-75
2021/07/26 04:37:42;;;;;;;9.53;8.53;;;;;;;17.91;93.70;97622.72;1612918;87;21802;-73
2021/07/26 04:40:09;;;;;;;13.62;9.25;;;;;;;18.01;93.76;97623.09;1623405;86;21045;-73
2021/07/26 04:42:41;;;;;;;11.33;7.97;;;;;;;18.07;93.80;97631.91;1631409;86;20956;-73
2021/07/26 04:45:08;;;;;;;11.97;7.40;;;;;;;18.10;93.89;97633.17;1638312;87;20984;-76
2021/07/26 04:47:33;;;;;;;12.18;7.70;;;;;;;18.16;93.19;97636.73;1631321;86;21075;-75
2021/07/26 04:49:59;;;;;;;7.42;4.95;;;;;;;18.22;93.16;97638.70;1638908;87;21351;-75
2021/07/26 04:52:26;;;;;;;14.05;5.97;;;;;;;18.29;92.99;97638.39;1637345;86;21035;-72
2021/07/26 04:54:52;;;;;;;8.55;5.65;;;;;;;18.35;92.89;97636.21;1638060;87;20940;-75
2021/07/26 04:57:18;;;;;;;7.45;4.97;;;;;;;18.49;93.37;97640.82;1638065;86;20995;-75
2021/07/26 04:59:44;;;;;;;4.95;3.72;;;;;;;18.63;92.81;97648.74;1638181;86;20892;-75
2021/07/26 05:02:10;;;;;;;6.40;3.90;;;;;;;18.80;92.56;97658.17;1631472;86;21358;-73
2021/07/26 05:04:36;;;;;;;9.95;5.08;;;;;;;18.88;91.89;97659.17;1612525;87;20868;-72
2021/07/26 05:07:02;;;;;;;5.87;4.53;;;;;;;19.09;92.04;97657.13;1638127;86;20981;-72
2021/07/26 05:09:29;;;;;;;6.58;4.53;;;;;;;19.33;91.71;97651.39;1638456;87;21530;-72
2021/07/26 05:12:01;;;;;;;6.33;4.72;;;;;;;19.45;91.02;97659.03;1638205;86;20957;-73
2021/07/26 05:14:28;;;;;;;8.70;5.78;;;;;;;19.59;90.45;97659.28;1631928;86;21251;-75
2021/07/26 05:16:54;;;;;;;7.42;4.95;;;;;;;19.77;90.38;97659.80;1638093;86;21599;-73
2021/07/26 05:19:20;;;;;;;8.63;5.12;;;;;;;19.77;86.52;97662.55;1631896;86;21035;-73
2021/07/26 05:21:46;;;;;;;6.47;4.37;;;;;;;19.91;87.01;97660.19;1638142;86;20999;-73
2021/07/26 05:24:12;;;;;;;7.03;4.15;;;;;;;19.91;85.55;97661.02;1638503;87;21585;-76
2021/07/26 05:26:38;;;;;;;8.43;4.92;;;;;;;20.15;87.12;97661.47;1631208;86;21204;-77
2021/07/26 05:29:04;;;;;;;6.42;3.98;;;;;;;20.26;85.59;97663.96;1638271;87;20947;-73
2021/07/26 05:31:30;;;;;;;6.30;4.67;;;;;;;20.23;84.60;97660.52;1611639;86;20968;-76
2021/07/26 05:33:55;;;;;;;8.55;4.53;;;;;;;20.34;84.88;97661.37;1637883;87;20963;-74
2021/07/26 05:36:24;;;;;;;5.10;4.00;;;;;;;20.29;83.65;97661.07;1615486;87;20864;-73
2021/07/26 05:38:50;;;;;;;7.58;3.40;;;;;;;20.47;84.58;97659.63;1638185;86;21111;-73
2021/07/26 05:41:17;;;;;;;8.25;4.40;;;;;;;20.49;83.21;97662.81;1635630;87;21447;-76
2021/07/26 05:43:44;;;;;;;5.78;3.77;;;;;;;20.55;83.78;97661.41;1635902;86;20956;-76
2021/07/26 05:46:10;;;;;;;5.15;4.28;;;;;;;20.62;83.30;97662.18;1635949;87;20982;-77
2021/07/26 05:48:36;;;;;;;5.87;3.67;;;;;;;20.71;83.12;97666.94;1636056;86;20889;-76
2021/07/26 05:51:03;;;;;;;7.50;4.75;;;;;;;20.87;82.48;97664.77;1635894;87;21861;-77
2021/07/26 05:53:30;;;;;;;6.62;4.00;;;;;;;20.96;81.81;97675.83;1635764;86;22190;-73
2021/07/26 05:55:56;;;;;;;7.83;4.45;;;;;;;21.00;81.95;97675.89;1635910;86;20988;-76
2021/07/26 05:58:24;;;;;;;7.58;4.62;;;;;;;21.08;81.33;97675.72;1635966;86;21439;-73
2021/07/26 06:01:08;;;;;;;11.20;4.90;;;;;;;21.24;81.80;97677.08;1636240;86;21451;-76
2021/07/26 06:03:24;;;;;;;5.55;4.08;;;;;;;21.35;79.93;97682.86;1633917;86;21876;-76
2021/07/26 06:05:50;;;;;;;7.28;3.62;;;;;;;21.47;80.25;97684.14;1636034;87;20880;-76
2021/07/26 06:08:16;;;;;;;5.97;4.35;;;;;;;21.55;78.75;97682.35;1636135;86;20935;-72
2021/07/26 06:10:42;;;;;;;4.55;4.10;;;;;;;21.76;78.78;97685.56;1636006;87;20912;-72
2021/07/26 06:13:08;;;;;;;6.45;4.10;;;;;;;21.91;77.19;97690.81;1636126;86;20971;-76
2021/07/26 06:15:35;;;;;;;6.12;4.00;;;;;;;22.06;78.04;97683.06;1636154;87;21181;-76
2021/07/26 06:18:01;;;;;;;7.40;4.23;;;;;;;22.11;76.29;97686.13;1636183;86;20948;-76
2021/07/26 06:20:27;;;;;;;8.08;4.60;;;;;;;22.17;76.70;97692.37;1636192;87;21011;-73
2021/07/26 06:22:54;;;;;;;9.43;4.03;;;;;;;22.32;76.59;97694.05;1636043;86;20892;-76
2021/07/26 06:25:20;;;;;;;4.08;3.62;;;;;;;22.41;76.33;97692.65;1636105;87;21389;-76
2021/07/26 06:27:46;;;;;;;8.83;5.75;;;;;;;22.49;74.58;97694.38;1636024;86;22108;-72
2021/07/26 06:30:13;;;;;;;5.45;4.20;;;;;;;22.43;72.95;97700.56;1636142;87;20939;-76
2021/07/26 06:32:39;;;;;;;7.40;4.60;;;;;;;22.56;74.38;97702.01;1636126;86;20944;-73
2021/07/26 06:35:07;;;;;;;6.65;4.70;;;;;;;22.80;75.24;97709.13;1609240;87;20872;-76
2021/07/26 06:37:33;;;;;;;8.80;4.40;;;;;;;22.61;74.32;97712.73;1636265;86;21012;-76
2021/07/26 06:39:59;;;;;;;8.20;4.60;;;;;;;22.49;74.80;97716.47;1629536;87;21348;-73
2021/07/26 06:42:25;;;;;;;6.12;4.20;;;;;;;22.53;75.57;97717.91;1613004;87;21010;-76
2021/07/26 06:44:51;;;;;;;6.72;4.40;;;;;;;22.41;73.98;97723.59;1613086;89;21584;-73
2021/07/26 06:47:17;;;;;;;7.87;5.03;;;;;;;22.35;74.68;97725.05;1612956;87;20855;-72
2021/07/26 06:49:43;;;;;;;4.97;4.30;;;;;;;22.40;75.35;97727.52;1613090;89;21046;-72
2021/07/26 06:52:08;;;;;;;7.33;4.47;;;;;;;22.42;75.28;97722.43;1613009;87;21188;-76
2021/07/26 06:54:34;;;;;;;6.85;3.95;;;;;;;22.36;75.62;97715.02;1613001;89;21006;-76
2021/07/26 06:57:00;;;;;;;12.98;5.55;;;;;;;22.38;75.28;97721.55;1612840;87;20954;-72
2021/07/26 06:59:26;;;;;;;7.65;4.42;;;;;;;22.51;75.43;97725.17;1613137;89;20903;-76
2021/07/26 07:01:52;;;;;;;5.92;3.90;;;;;;;22.47;75.32;97722.11;1612887;87;21577;-73
2021/07/26 07:04:18;;;;;;;7.67;4.25;;;;;;;22.58;74.97;97727.28;1613231;89;21145;-76
2021/07/26 07:06:44;;;;;;;10.68;5.00;;;;;;;22.69;74.69;97733.00;1612763;87;21014;-76
2021/07/26 07:09:10;;;;;;;6.00;3.67;;;;;;;22.76;74.71;97731.17;1613102;89;20919;-73
2021/07/26 07:11:36;;;;;;;9.50;4.90;;;;;;;22.87;74.11;97735.53;1612699;87;20848;-76
2021/07/26 07:14:02;;;;;;;5.12;3.98;;;;;;;22.80;73.63;97737.55;1613078;89;20986;-76
2021/07/26 07:16:28;;;;;;;9.55;6.58;;;;;;;22.78;71.96;97745.41;1612805;89;21367;-73
2021/07/26 07:18:55;;;;;;;9.50;5.00;;;;;;;22.89;73.27;97741.48;1612822;87;20895;-73
2021/07/26 07:21:28;;;;;;;10.55;5.35;;;;;;;22.97;73.27;97738.27;1612811;89;20997;-76
2021/07/26 07:23:56;;;;;;;8.53;4.87;;;;;;;23.00;73.36;97741.11;1612754;87;20999;-76
2021/07/26 07:26:23;;;;;;;8.65;4.25;;;;;;;22.91;73.44;97747.45;1612944;89;20944;-76
2021/07/26 07:28:49;;;;;;;8.43;4.15;;;;;;;22.87;73.41;97739.67;1612827;87;21353;-73
2021/07/26 07:31:17;;;;;;;7.35;3.70;;;;;;;22.81;73.54;97739.72;1612796;89;20996;-76
2021/07/26 07:33:44;;;;;;;6.43;4.20;;;;;;;22.69;74.27;97740.70;1613116;87;20943;-73
2021/07/26 07:36:10;;;;;;;4.60;3.60;;;;;;;22.62;73.85;97743.91;1612836;89;21385;-75
2021/07/26 07:38:36;;;;;;;7.90;4.25;;;;;;;22.51;73.97;97741.74;1612856;87;20882;-74
2021/07/26 07:41:02;;;;;;;7.20;3.75;;;;;;;22.47;74.05;97741.44;1612668;87;21263;-76
2021/07/26 07:43:29;;;;;;;8.65;3.80;;;;;;;22.39;74.53;97751.56;1612797;87;21412;-73
2021/07/26 07:45:55;;;;;;;9.70;3.95;;;;;;;22.31;75.43;97754.55;1612869;89;21062;-73
2021/07/26 07:48:24;;;;;;;5.65;4.15;;;;;;;22.34;74.92;97753.81;1612789;87;20956;-75
2021/07/26 07:50:53;;;;;;;9.18;4.42;;;;;;;22.33;75.50;97754.39;1613027;89;21408;-76
2021/07/26 07:53:19;;;;;;;9.80;6.95;;;;;;;22.35;75.79;97759.55;1612743;87;21334;-76
2021/07/26 07:55:44;;;;;;;6.92;4.15;;;;;;;22.44;74.84;97758.74;1612751;89;21657;-76
2021/07/26 07:58:10;;;;;;;4.95;3.22;;;;;;;22.47;73.89;97759.38;1612991;87;20887;-75
2021/07/26 08:00:36;;;;;;;5.08;3.77;;;;;;;22.40;72.89;97757.88;1612959;89;20930;-75
2021/07/26 08:03:03;;;;;;;7.72;3.33;;;;;;;22.34;73.13;97763.47;1612909;87;21421;-75
2021/07/26 08:05:30;;;;;;;5.67;3.67;;;;;;;22.31;72.89;97766.38;1612885;89;21163;-75
2021/07/26 08:07:56;;;;;;;7.53;3.40;;;;;;;22.36;72.23;97772.17;1612734;87;20999;-72
2021/07/26 08:10:22;;;;;;;3.87;3.22;;;;;;;22.36;71.92;97769.42;1613009;89;20927;-73
2021/07/26 08:12:48;;;;;;;5.30;3.52;;;;;;;22.36;71.54;97777.70;1612834;87;21038;-75
2021/07/26 08:15:14;;;;;;;6.97;3.30;;;;;;;22.22;72.07;97780.98;1612942;89;21510;-73
2021/07/26 08:17:41;;;;;;;5.67;4.05;;;;;;;22.27;71.79;97782.63;1612900;87;22033;-73
2021/07/26 08:20:09;;;;;;;7.40;3.85;;;;;;;22.30;72.28;97767.52;1612913;89;21479;-75
2021/07/26 08:22:35;;;;;;;9.35;3.37;;;;;;;22.48;71.37;97774.81;1613006;87;21468;-75
2021/07/26 08:25:02;;;;;;;7.15;3.85;;;;;;;22.65;70.56;97770.80;1613029;89;20880;-73
2021/07/26 08:27:28;;;;;;;7.08;3.40;;;;;;;22.79;72.05;97774.62;1612680;87;21461;-73
2021/07/26 08:29:54;;;;;;;4.60;3.22;;;;;;;23.31;72.10;97775.17;1613054;89;21177;-74
2021/07/26 08:32:20;;;;;;;6.33;3.27;;;;;;;23.69;70.07;97774.25;1612711;87;20919;-73
2021/07/26 08:34:46;;;;;;;5.97;3.58;;;;;;;23.72;69.07;97770.73;1612928;89;20867;-76
2021/07/26 08:37:12;;;;;;;5.75;3.55;;;;;;;23.64;67.82;97773.17;1612701;87;20847;-75
2021/07/26 08:39:39;;;;;;;7.17;4.80;;;;;;;23.67;67.46;97777.16;1613075;89;21590;-73
2021/07/26 08:42:05;;;;;;;9.98;5.28;;;;;;;23.68;69.16;97780.95;1629104;86;21323;-75
2021/07/26 08:44:34;;;;;;;6.08;3.05;;;;;;;24.00;68.21;97777.26;1631335;86;20993;-76
2021/07/26 08:47:02;;;;;;;4.55;3.55;;;;;;;25.12;66.98;97778.25;1638168;85;20992;-76
2021/07/26 08:49:28;;;;;;;8.30;3.90;;;;;;;25.67;63.91;97769.22;1638142;87;21011;-77
2021/07/26 08:51:55;;;;;;;8.05;3.20;;;;;;;26.48;62.15;97770.92;1631239;86;21007;-77
2021/07/26 08:54:21;;;;;;;6.75;3.40;;;;;;;26.98;61.25;97774.06;1611304;88;21440;-77
2021/07/26 08:56:49;;;;;;;6.58;3.60;;;;;;;27.72;57.71;97769.01;1638037;86;20936;-74
2021/07/26 08:59:15;;;;;;;5.40;3.52;;;;;;;27.76;58.13;97769.19;1638401;87;21044;-77
2021/07/26 09:01:43;;;;;;;10.58;3.35;;;;;;;29.00;57.44;97765.03;1637907;86;20832;-74
2021/07/26 09:04:09;;;;;;;4.33;2.87;;;;;;;29.82;54.66;97761.00;1638277;87;21048;-74
2021/07/26 09:06:34;;;;;;;5.60;3.42;;;;;;;30.72;53.01;97760.84;1631176;86;21306;-74
2021/07/26 09:09:01;;;;;;;6.35;3.30;;;;;;;31.50;50.37;97763.11;1631479;88;21662;-78
2021/07/26 09:11:27;;;;;;;6.45;3.72;;;;;;;32.45;44.92;97757.80;1612547;87;20999;-77
2021/07/26 09:13:52;;;;;;;4.20;2.95;;;;;;;32.57;46.12;97755.59;1568895;87;21468;-75
2021/07/26 09:16:22;;;;;;;3.45;3.10;;;;;;;32.71;44.92;97752.45;1631387;88;20885;-77
2021/07/26 09:19:06;;;;;;;6.50;3.35;;;;;;;33.01;44.21;97761.25;1637959;86;21060;-76
2021/07/26 09:21:51;;;;;;;6.00;4.33;;;;;;;34.08;42.18;97755.83;1631246;86;21000;-75
2021/07/26 09:24:26;;;;;;;6.58;3.17;;;;;;;34.61;41.08;97759.99;1638070;87;21038;-74
2021/07/26 09:26:53;;;;;;;4.78;3.15;;;;;;;35.17;38.97;97758.72;1637705;86;21118;-76
2021/07/26 09:29:27;;;;;;;2.80;2.40;;;;;;;35.38;36.79;97758.64;1638378;86;21004;-76
2021/07/26 09:32:05;;;;;;;6.85;6.15;;;;;;;35.68;35.77;97754.47;1637993;86;21107;-78
2021/07/26 09:34:37;;;;;;;5.08;3.55;;;;;;;36.30;34.95;97749.88;1637837;87;21027;-75
2021/07/26 09:37:17;;;;;;;5.28;3.40;;;;;;;36.19;32.86;97746.66;1637527;86;20961;-78
2021/07/26 09:39:43;;;;;;;4.55;2.60;;;;;;;36.12;33.00;97748.33;1631351;88;21409;-77
2021/07/26 09:42:24;;;;;;;2.62;2.22;;;;;;;36.13;32.56;97754.13;1612240;87;20948;-75
2021/07/26 09:44:50;;;;;;;3.60;2.50;;;;;;;36.03;33.50;97750.45;1630389;88;21197;-78
2021/07/26 09:47:21;;;;;;;5.55;2.60;;;;;;;36.30;32.63;97758.96;1612493;87;21033;-76
2021/07/26 09:49:47;;;;;;;3.87;2.80;;;;;;;36.59;31.47;97761.56;1638007;87;21035;-76
2021/07/26 09:52:13;;;;;;;6.05;3.80;;;;;;;36.25;32.47;97763.80;1637866;86;20943;-78
2021/07/26 09:54:48;;;;;;;6.95;5.92;;;;;;;36.08;33.72;97766.00;1631440;88;21078;-76
2021/07/26 09:57:23;;;;;;;5.67;3.20;;;;;;;36.61;32.60;97768.94;1637975;86;21987;-76
2021/07/26 09:59:49;;;;;;;4.65;2.95;;;;;;;36.93;31.40;97764.30;1631310;88;20988;-78
2021/07/26 10:02:26;;;;;;;3.20;2.50;;;;;;;37.77;30.27;97771.84;1635857;86;20991;-78
2021/07/26 10:04:52;;;;;;;3.55;3.25;;;;;;;38.19;28.73;97762.14;1631766;87;21000;-75
2021/07/26 10:07:18;;;;;;;6.45;3.00;;;;;;;38.29;29.09;97769.42;1631236;86;20989;-77
2021/07/26 10:09:45;;;;;;;3.95;2.70;;;;;;;38.61;27.65;97769.38;1631651;88;21856;-75
2021/07/26 10:12:19;;;;;;;4.00;2.98;;;;;;;38.91;26.81;97768.25;1637185;86;21047;-75
2021/07/26 10:14:49;;;;;;;4.83;3.33;;;;;;;39.06;26.95;97771.20;1636866;87;21052;-79
2021/07/26 10:17:15;;;;;;;3.58;2.90;;;;;;;39.16;27.13;97767.09;1612652;87;21053;-79
2021/07/26 10:19:41;;;;;;;5.30;3.20;;;;;;;39.43;26.13;97774.68;1638265;87;20987;-78
2021/07/26 10:22:11;;;;;;;3.45;2.27;;;;;;;39.38;25.93;97780.98;1637977;86;21157;-76
2021/07/26 10:24:47;;;;;;;5.37;2.65;;;;;;;39.38;25.74;97777.52;1635993;87;21038;-76
2021/07/26 10:27:26;;;;;;;6.92;3.20;;;;;;;39.70;26.07;97777.38;1631070;86;21044;-79
2021/07/26 10:29:53;;;;;;;4.58;2.80;;;;;;;40.36;25.19;97787.81;1611618;88;21420;-76
2021/07/26 10:32:33;;;;;;;;;;;;;;;40.09;23.89;97778.11;1633697;86;20989;-78
2021/07/26 10:35:02;;;;;;;6.85;3.08;;;;;;;39.50;24.87;97785.67;1631162;86;21100;-78
2021/07/26 10:37:45;;;;;;;5.05;3.22;;;;;;;39.78;24.45;97784.12;1631156;86;21048;-77
2021/07/26 10:40:37;;;;;;;6.72;3.22;;;;;;;39.96;23.58;97776.91;1631412;88;20965;-75
2021/07/26 10:43:03;;;;;;;6.10;5.58;;;;;;;40.13;23.02;97773.81;1631221;86;20957;-78
2021/07/26 10:45:39;;;;;;;3.27;2.40;;;;;;;40.29;23.67;97776.20;1638080;87;21008;-76
2021/07/26 10:48:30;;;;;;;4.15;2.85;;;;;;;40.81;22.25;97785.83;1631140;86;21074;-78
2021/07/26 10:50:57;;;;;;;4.12;3.15;;;;;;;40.85;21.52;97782.95;1631486;88;21412;-76
2021/07/26 10:53:41;;;;;;;2.58;2.37;;;;;;;40.14;22.48;97786.72;1631318;86;20965;-78
2021/07/26 10:56:15;;;;;;;3.87;3.20;;;;;;;40.00;23.05;97777.52;1631490;88;21000;-75
2021/07/26 10:58:49;;;;;;;5.25;3.02;;;;;;;40.17;23.54;97774.42;1631425;86;20944;-78
2021/07/26 11:01:27;;;;;;;3.45;2.12;;;;;;;40.64;22.87;97777.64;1631539;88;21165;-78
2021/07/26 11:03:56;;;;;;;7.12;2.77;;;;;;;41.11;21.61;97772.44;1631287;86;21012;-75
2021/07/26 11:06:45;;;;;;;3.67;2.42;;;;;;;40.91;22.50;97772.34;1631171;87;20949;-75
2021/07/26 11:09:33;;;;;;;3.52;2.10;;;;;;;41.36;22.17;97773.26;1631611;88;20980;-78
2021/07/26 11:11:57;;;;;;;2.97;2.10;;;;;;;41.59;22.21;97757.29;1637573;86;21369;-76
2021/07/26 11:14:23;;;;;;;3.77;2.40;;;;;;;41.59;22.21;97757.29;1638590;87;26284;-79
2021/07/26 11:17:02;;;;;;;3.02;2.25;;;;;;;41.81;21.16;97768.23;1638496;86;20896;-78
2021/07/26 11:19:55;;;;;;;4.65;2.37;;;;;;;41.75;20.12;97760.25;1638762;86;20995;-76
2021/07/26 11:22:30;;;;;;;3.50;2.08;;;;;;;41.49;21.76;97768.66;1631972;86;20981;-76
2021/07/26 11:25:05;;;;;;;3.58;2.92;;;;;;;42.25;20.62;97770.09;1631632;88;21008;-77
2021/07/26 11:27:40;;;;;;;3.65;3.08;;;;;;;41.77;20.39;97768.28;1612557;88;21084;-77
2021/07/26 11:30:08;;;;;;;4.08;2.75;;;;;;;42.04;21.47;97774.19;1631480;88;20992;-76
2021/07/26 11:32:36;;;;;;;2.90;2.62;;;;;;;42.73;20.72;97768.14;1631278;86;21067;-79
2021/07/26 11:35:03;;;;;;;4.65;3.17;;;;;;;42.80;19.75;97768.48;1638359;86;21453;-79
2021/07/26 11:37:39;;;;;;;6.70;3.10;;;;;;;42.33;21.41;97762.68;1637672;86;21361;-79